Time;durP1;ratioP1;P1;durP2;ratioP2;P2;SDS_P1;SDS_P2;PMS_P1;PMS_P2;Temp;Humidity;BMP_temperature;BMP_pressure;BME280_temperature;BME280_humidity;BME280_pressure;Samples;Min_cycle;Max_cycle;Signal;HPM_P1;HPM_P2
2022/12/03 00:01:37;;;;;;;21.83;12.15;;;;;;;7.90;91.47;101091.38;4930501;29;20050;-72
2022/12/03 00:04:06;;;;;;;24.50;11.85;;;;;;;7.89;91.18;101095.16;4933473;29;20043;-72
2022/12/03 00:06:34;;;;;;;23.27;12.32;;;;;;;7.98;91.73;101088.25;4932459;29;20047;-72
2022/12/03 00:09:03;;;;;;;20.38;11.65;;;;;;;8.01;90.79;101090.44;4934165;29;20059;-72
2022/12/03 00:11:31;;;;;;;21.05;10.82;;;;;;;7.86;90.80;101091.03;4933910;29;20039;-72
2022/12/03 00:13:59;;;;;;;20.02;12.40;;;;;;;7.89;91.19;101095.16;4932765;29;20407;-72
2022/12/03 00:16:27;;;;;;;22.45;12.05;;;;;;;7.93;91.04;101088.97;4941852;29;20039;-72
2022/12/03 00:18:55;;;;;;;22.55;11.30;;;;;;;7.92;90.89;101084.59;4932263;29;20051;-72
2022/12/03 00:21:23;;;;;;;18.83;10.93;;;;;;;7.95;91.26;101083.28;4936361;29;20060;-72
2022/12/03 00:23:51;;;;;;;21.00;11.40;;;;;;;7.89;91.14;101078.81;4940455;29;20059;-72
2022/12/03 00:26:19;;;;;;;21.27;11.23;;;;;;;7.94;91.70;101087.06;4939003;29;20044;-72
2022/12/03 00:28:48;;;;;;;22.60;11.25;;;;;;;7.99;90.64;101081.69;4939420;29;20050;-72
2022/12/03 00:31:17;;;;;;;19.65;10.65;;;;;;;7.94;90.75;101092.53;4940037;29;20044;-72
2022/12/03 00:33:45;;;;;;;21.77;11.32;;;;;;;7.87;90.41;101083.69;4939856;29;20052;-71
2022/12/03 00:36:13;;;;;;;22.23;11.40;;;;;;;7.80;90.84;101073.81;4940089;29;20062;-72
2022/12/03 00:38:41;;;;;;;22.38;12.52;;;;;;;7.82;90.67;101072.72;4939638;29;20114;-72
2022/12/03 00:41:09;;;;;;;23.00;12.23;;;;;;;7.83;90.80;101074.38;4940145;29;20067;-72
2022/12/03 00:43:37;;;;;;;24.90;12.18;;;;;;;7.86;90.85;101066.53;4940384;29;20487;-72
2022/12/03 00:46:05;;;;;;;22.23;11.45;;;;;;;7.79;91.08;101060.41;4939421;29;20063;-72
2022/12/03 00:48:35;;;;;;;21.25;11.18;;;;;;;7.69;91.43;101074.72;4940220;29;20059;-72
2022/12/03 00:51:03;;;;;;;23.70;12.05;;;;;;;7.71;91.28;101069.00;4938672;29;20411;-72
2022/12/03 00:53:32;;;;;;;17.30;10.57;;;;;;;7.73;90.56;101069.59;4939003;29;20499;-71
2022/12/03 00:56:00;;;;;;;19.98;10.93;;;;;;;7.79;89.91;101063.16;4937966;29;20048;-72
2022/12/03 00:58:28;;;;;;;17.98;9.45;;;;;;;7.74;90.14;101063.91;4939749;29;20072;-72
2022/12/03 01:00:56;;;;;;;17.38;10.00;;;;;;;7.81;90.10;101063.72;4940731;29;20043;-72
2022/12/03 01:03:25;;;;;;;14.70;9.55;;;;;;;7.82;90.17;101068.09;4940609;29;20411;-72
2022/12/03 01:05:53;;;;;;;17.52;9.88;;;;;;;7.86;90.51;101066.53;4939230;29;20062;-72
2022/12/03 01:08:20;;;;;;;16.50;10.20;;;;;;;7.86;90.02;101069.25;4940835;29;20048;-71
2022/12/03 01:10:49;;;;;;;18.20;9.75;;;;;;;7.86;89.98;101074.69;4939532;29;20051;-72
2022/12/03 01:13:17;;;;;;;21.05;10.27;;;;;;;7.73;90.05;101075.84;4940951;29;20152;-72
2022/12/03 01:15:44;;;;;;;17.73;9.57;;;;;;;7.87;90.21;101076.34;4940770;29;20055;-72
2022/12/03 01:18:13;;;;;;;16.55;9.90;;;;;;;7.86;89.37;101071.16;4940896;29;20043;-72
2022/12/03 01:20:41;;;;;;;18.33;9.82;;;;;;;7.93;89.10;101066.34;4940651;29;20051;-72
2022/12/03 01:23:08;;;;;;;18.23;10.73;;;;;;;7.87;89.92;101064.63;4940551;29;20059;-72
2022/12/03 01:25:36;;;;;;;18.08;10.18;;;;;;;7.96;90.12;101076.75;4940843;29;20062;-72
2022/12/03 01:28:04;;;;;;;17.92;9.45;;;;;;;7.84;90.14;101074.13;4940301;29;20055;-71
2022/12/03 01:32:15;;;;;;;14.93;8.45;;;;;;;7.82;88.86;101072.72;4938871;29;20398;-71
2022/12/03 01:33:21;;;;;;;17.08;10.45;;;;;;;7.93;88.64;101074.53;4936787;29;20047;-72
2022/12/03 01:35:49;;;;;;;16.02;9.25;;;;;;;7.97;88.55;101064.75;4936959;29;20062;-72
2022/12/03 01:38:17;;;;;;;16.67;8.95;;;;;;;8.01;88.39;101071.38;4936069;29;20058;-72
2022/12/03 01:40:45;;;;;;;18.00;9.45;;;;;;;8.02;88.46;101067.56;4935797;29;20052;-72
2022/12/03 01:43:12;;;;;;;17.67;9.77;;;;;;;8.03;88.86;101074.66;4936864;29;20510;-72
2022/12/03 01:45:40;;;;;;;15.52;8.85;;;;;;;7.91;88.74;101058.41;4935868;29;20106;-72
2022/12/03 01:48:15;;;;;;;13.73;9.25;;;;;;;8.05;88.84;101080.69;4936825;29;20055;-72
2022/12/03 01:50:44;;;;;;;18.60;10.55;;;;;;;7.99;88.89;101064.50;4935206;29;20483;-71
2022/12/03 01:53:15;;;;;;;21.92;10.20;;;;;;;7.99;88.83;101068.06;4936993;29;20059;-70
2022/12/03 01:55:44;;;;;;;18.40;9.82;;;;;;;8.02;88.85;101072.22;4937151;29;20051;-72
2022/12/03 01:58:18;;;;;;;14.90;9.45;;;;;;;7.98;89.06;101071.03;4937067;29;20372;-72
2022/12/03 02:00:46;;;;;;;18.15;10.13;;;;;;;7.94;89.10;101071.53;4938909;29;20052;-72
2022/12/03 02:03:19;;;;;;;18.17;10.73;;;;;;;7.90;88.55;101070.41;4943307;29;20051;-72
2022/12/03 02:05:48;;;;;;;19.33;10.95;;;;;;;7.91;90.18;101073.94;4935681;29;20051;-72
2022/12/03 02:08:30;;;;;;;19.60;10.82;;;;;;;7.85;89.59;101064.03;4936278;29;20066;-72
2022/12/03 02:11:06;;;;;;;15.77;9.13;;;;;;;7.84;89.21;101054.22;4935255;29;20055;-72
2022/12/03 02:13:35;;;;;;;17.70;10.77;;;;;;;7.89;88.92;101052.41;4935976;29;20403;-72
2022/12/03 02:16:03;;;;;;;15.77;9.95;;;;;;;7.83;89.59;101052.56;4934463;29;20048;-73
2022/12/03 02:18:31;;;;;;;18.23;10.27;;;;;;;7.84;89.32;101044.16;4934503;29;20123;-72
2022/12/03 02:21:23;;;;;;;15.10;9.57;;;;;;;7.80;89.64;101043.00;4936713;29;20055;-72
2022/12/03 02:23:59;;;;;;;16.17;9.13;;;;;;;7.77;90.18;101051.69;4923580;29;20399;-72
2022/12/03 02:26:28;;;;;;;18.25;9.77;;;;;;;7.82;89.83;101053.66;4935119;29;20048;-72
2022/12/03 02:28:56;;;;;;;19.63;9.60;;;;;;;7.85;89.46;101045.78;4932568;29;20048;-72
2022/12/03 02:31:24;;;;;;;18.60;9.40;;;;;;;7.88;88.94;101045.28;4936018;29;20040;-72
2022/12/03 02:33:53;;;;;;;18.30;9.73;;;;;;;7.75;89.39;101040.19;4934187;29;20056;-72
2022/12/03 02:36:21;;;;;;;14.70;9.88;;;;;;;7.83;89.67;101047.13;4935743;29;20051;-72
2022/12/03 02:38:50;;;;;;;17.48;10.30;;;;;;;7.74;89.71;101033.09;4935805;29;20491;-72
2022/12/03 02:44:07;;;;;;;15.27;9.23;;;;;;;7.58;90.89;101029.31;4934861;29;20052;-72
2022/12/03 02:46:35;;;;;;;13.93;8.68;;;;;;;7.61;90.85;101028.81;4935955;29;20050;-72
2022/12/03 02:49:05;;;;;;;19.10;9.23;;;;;;;7.58;90.68;101029.31;4918583;29;20040;-71
2022/12/03 02:51:34;;;;;;;15.90;9.43;;;;;;;7.75;90.43;101029.28;4931970;29;20039;-72
2022/12/03 02:54:02;;;;;;;18.15;9.15;;;;;;;7.82;90.97;101021.75;4935534;29;20049;-72
2022/12/03 02:56:31;;;;;;;17.70;10.90;;;;;;;7.83;90.58;101028.88;4935242;29;20040;-72
2022/12/03 02:59:02;;;;;;;15.57;9.20;;;;;;;7.79;90.19;101028.53;4935137;29;20047;-72
2022/12/03 03:01:30;;;;;;;16.35;9.98;;;;;;;7.90;90.44;101031.41;4936162;29;20493;-72
2022/12/03 03:03:58;;;;;;;20.38;10.18;;;;;;;7.92;91.25;101032.00;4934051;29;20048;-72
2022/12/03 03:06:26;;;;;;;13.80;9.25;;;;;;;7.82;91.25;101029.94;4935579;29;20044;-72
2022/12/03 03:08:54;;;;;;;17.65;9.55;;;;;;;7.82;90.68;101027.22;4934986;29;20048;-72
2022/12/03 03:11:23;;;;;;;15.50;9.60;;;;;;;7.85;90.76;101025.88;4935982;29;20403;-72
2022/12/03 03:13:51;;;;;;;16.13;9.30;;;;;;;7.87;90.36;101026.47;4935780;29;20052;-72
2022/12/03 03:16:19;;;;;;;18.55;9.48;;;;;;;7.83;90.21;101019.88;4936017;29;20051;-72
2022/12/03 03:18:47;;;;;;;17.10;9.75;;;;;;;7.88;90.74;101017.22;4935846;29;20048;-72
2022/12/03 03:21:15;;;;;;;17.13;9.45;;;;;;;7.89;89.81;101013.41;4935749;29;20052;-72
2022/12/03 03:23:43;;;;;;;15.43;8.90;;;;;;;7.87;89.91;101010.94;4935646;29;20055;-72
2022/12/03 03:26:13;;;;;;;17.77;9.40;;;;;;;7.93;90.32;101014.56;4935355;29;20055;-72
2022/12/03 03:28:50;;;;;;;18.05;9.75;;;;;;;7.89;89.71;101021.59;4935464;29;20546;-72
2022/12/03 03:31:22;;;;;;;17.90;9.77;;;;;;;7.91;89.69;101022.16;4932435;29;20047;-72
2022/12/03 03:33:50;;;;;;;13.90;9.70;;;;;;;7.94;90.19;101019.75;4933949;29;20051;-72
2022/12/03 03:36:19;;;;;;;13.27;9.07;;;;;;;7.94;89.35;101016.22;4930394;29;20054;-72
2022/12/03 03:38:47;;;;;;;17.45;10.02;;;;;;;7.97;89.70;101021.16;4927805;29;20381;-72
2022/12/03 03:41:16;;;;;;;17.55;8.02;;;;;;;8.07;90.52;101026.75;4931431;29;20399;-72
2022/12/03 03:43:47;;;;;;;19.35;9.90;;;;;;;8.05;90.15;101026.19;4921218;29;20051;-72
2022/12/03 03:46:16;;;;;;;17.20;9.77;;;;;;;8.12;90.20;101022.44;4944481;28;20048;-71
2022/12/03 03:48:44;;;;;;;16.73;8.50;;;;;;;8.17;90.70;101019.78;4929872;29;20040;-72
2022/12/03 03:51:13;;;;;;;16.02;9.75;;;;;;;8.19;90.45;101023.09;4933014;29;20047;-72
2022/12/03 03:53:46;;;;;;;15.15;9.73;;;;;;;8.19;89.96;101023.09;4933839;29;20047;-72
2022/12/03 03:56:19;;;;;;;15.90;9.88;;;;;;;8.23;91.52;101012.50;4934479;29;20487;-71
2022/12/03 03:58:47;;;;;;;15.13;9.25;;;;;;;8.27;91.16;101011.72;4935262;29;20771;-71
2022/12/03 04:01:16;;;;;;;17.20;10.30;;;;;;;8.15;91.00;101014.59;4934060;29;20051;-72
2022/12/03 04:03:44;;;;;;;20.23;8.95;;;;;;;8.05;91.47;101017.16;4932515;29;20063;-72
2022/12/03 04:06:12;;;;;;;14.30;9.07;;;;;;;8.19;91.32;101012.19;4933852;29;20048;-72
2022/12/03 04:08:41;;;;;;;19.08;9.93;;;;;;;8.07;91.54;101015.03;4934378;29;20399;-72
2022/12/03 04:13:55;;;;;;;18.38;9.70;;;;;;;8.00;91.75;101009.75;4933208;29;20043;-72
2022/12/03 04:16:23;;;;;;;15.63;10.00;;;;;;;7.92;92.53;101008.28;4934336;29;20510;-72
2022/12/03 04:18:51;;;;;;;15.55;9.10;;;;;;;7.90;91.77;101004.16;4933167;29;20048;-73
2022/12/03 04:24:10;;;;;;;12.93;9.18;;;;;;;7.92;93.02;101002.03;4933200;29;20060;-72
2022/12/03 04:29:25;;;;;;;19.50;9.90;;;;;;;7.83;93.25;101003.53;4927808;29;20052;-72
2022/12/03 04:37:26;;;;;;;15.30;9.57;;;;;;;7.86;93.96;101001.13;4932374;29;20044;-72
2022/12/03 04:39:54;;;;;;;13.57;8.32;;;;;;;7.77;93.65;101000.72;4932887;29;20050;-71
2022/12/03 04:42:22;;;;;;;16.42;9.93;;;;;;;7.87;93.62;100993.78;4933612;29;20047;-72
2022/12/03 04:44:50;;;;;;;18.75;9.82;;;;;;;7.88;93.59;101004.41;4934050;29;20066;-72
2022/12/03 04:47:20;;;;;;;16.42;9.13;;;;;;;7.87;93.14;101004.69;4933958;29;20047;-72
2022/12/03 04:49:50;;;;;;;14.70;8.73;;;;;;;7.89;93.58;100987.00;4934078;29;20060;-72
2022/12/03 04:52:19;;;;;;;17.30;9.18;;;;;;;7.93;93.90;100988.13;4930618;29;20055;-72
2022/12/03 04:54:47;;;;;;;14.85;9.48;;;;;;;7.83;94.20;100984.44;4934549;29;20048;-72
2022/12/03 04:57:15;;;;;;;16.80;10.20;;;;;;;7.85;94.25;100994.03;4933833;29;20399;-72
2022/12/03 04:59:43;;;;;;;18.73;9.65;;;;;;;7.83;94.62;100993.47;4934389;29;20491;-72
2022/12/03 05:02:11;;;;;;;17.02;9.38;;;;;;;7.79;94.93;100995.03;4934678;29;20402;-72
2022/12/03 05:04:39;;;;;;;18.50;10.20;;;;;;;7.76;95.15;101001.81;4934373;29;20059;-72
2022/12/03 05:07:07;;;;;;;19.65;9.80;;;;;;;7.86;96.38;100992.13;4932931;29;20841;-72
2022/12/03 05:09:35;;;;;;;17.08;9.95;;;;;;;7.84;96.40;100988.81;4938134;29;20052;-72
2022/12/03 05:12:03;;;;;;;17.08;10.35;;;;;;;7.87;96.11;100993.78;4936789;29;20056;-72
2022/12/03 05:14:31;;;;;;;16.40;9.52;;;;;;;7.88;95.20;100990.78;4937377;29;20044;-72
2022/12/03 05:16:59;;;;;;;17.88;9.20;;;;;;;7.92;95.70;100991.94;4937930;29;20059;-72
2022/12/03 05:22:14;;;;;;;16.35;9.25;;;;;;;7.79;96.85;100986.84;4937879;29;20051;-72
2022/12/03 05:24:42;;;;;;;16.15;8.52;;;;;;;7.78;95.14;100994.19;4945909;29;20047;-72
2022/12/03 05:27:10;;;;;;;14.57;9.20;;;;;;;7.82;95.67;100988.25;4937261;29;20040;-72
2022/12/03 05:29:38;;;;;;;18.35;8.73;;;;;;;7.79;96.24;100982.22;4939268;29;20052;-72
2022/12/03 05:32:06;;;;;;;16.73;8.77;;;;;;;7.84;96.47;100983.38;4936940;29;20047;-72
2022/12/03 05:34:34;;;;;;;16.55;8.20;;;;;;;7.73;96.78;100979.69;4937775;29;20051;-72
2022/12/03 05:37:02;;;;;;;13.85;7.85;;;;;;;7.85;97.26;100980.41;4935944;29;20031;-70
2022/12/03 05:39:30;;;;;;;13.68;9.20;;;;;;;7.88;97.22;100973.63;4934892;29;20052;-71
2022/12/03 05:44:44;;;;;;;13.30;8.32;;;;;;;7.96;97.20;100989.53;4937205;29;20047;-71
2022/12/03 05:47:12;;;;;;;13.60;8.40;;;;;;;8.00;97.07;100987.13;4935742;29;20051;-71
2022/12/03 05:49:40;;;;;;;13.50;7.90;;;;;;;7.98;98.05;100983.84;4935380;29;20054;-72
2022/12/03 05:52:08;;;;;;;15.70;9.55;;;;;;;7.99;97.63;100983.59;4936385;29;20050;-73
2022/12/03 05:54:36;;;;;;;13.90;8.93;;;;;;;8.04;97.59;100978.19;4937252;29;20060;-72
2022/12/03 05:57:04;;;;;;;16.80;8.88;;;;;;;8.00;98.67;100985.22;4937123;29;20059;-72
2022/12/03 05:59:33;;;;;;;12.65;7.70;;;;;;;7.95;98.20;100979.72;4935357;29;20407;-71
2022/12/03 06:02:01;;;;;;;9.75;6.03;;;;;;;7.91;96.83;100976.66;4935825;29;20048;-70
2022/12/03 06:04:29;;;;;;;11.07;5.88;;;;;;;8.10;96.70;100978.25;4937097;29;20061;-71
2022/12/03 06:06:57;;;;;;;9.90;4.70;;;;;;;8.19;95.72;100984.91;4936450;29;20062;-70
2022/12/03 06:09:25;;;;;;;7.15;4.18;;;;;;;8.36;94.86;100981.31;4934152;29;20047;-71
2022/12/03 06:11:53;;;;;;;4.70;3.85;;;;;;;8.45;94.22;100988.78;4933271;29;20055;-71
2022/12/03 06:14:21;;;;;;;5.20;3.80;;;;;;;8.52;93.86;100976.88;4933089;29;20039;-71
2022/12/03 06:16:49;;;;;;;6.40;3.90;;;;;;;8.58;94.46;100987.59;4935342;29;20047;-71
2022/12/03 06:19:17;;;;;;;6.22;3.80;;;;;;;8.57;95.50;100980.47;4935518;29;20098;-71
2022/12/03 06:21:45;;;;;;;4.93;3.70;;;;;;;8.46;95.54;100981.44;4935549;29;20490;-71
2022/12/03 06:24:13;;;;;;;4.95;3.47;;;;;;;8.64;95.97;100980.25;4935943;29;20055;-71
2022/12/03 06:26:41;;;;;;;6.40;4.00;;;;;;;8.67;94.66;100976.19;4935582;29;20491;-71
2022/12/03 06:29:09;;;;;;;5.53;3.85;;;;;;;8.71;95.04;100975.41;4935655;29;20052;-72
2022/12/03 06:31:37;;;;;;;5.38;3.50;;;;;;;8.64;94.00;100976.72;4935854;29;20067;-70
2022/12/03 06:34:05;;;;;;;4.13;2.90;;;;;;;8.63;94.73;100975.91;4934668;29;20051;-71
2022/12/03 06:36:33;;;;;;;4.55;3.05;;;;;;;8.59;94.25;100983.78;4936408;29;20052;-71
2022/12/03 06:39:01;;;;;;;3.88;2.72;;;;;;;8.60;94.82;100979.13;4935759;29;20056;-72
2022/12/03 06:41:29;;;;;;;5.25;3.50;;;;;;;8.60;94.74;100977.22;4933821;29;20051;-71
2022/12/03 06:43:57;;;;;;;5.90;4.47;;;;;;;8.77;93.96;100978.19;4935589;29;20056;-71
2022/12/03 06:46:25;;;;;;;7.28;4.22;;;;;;;8.81;94.84;100974.69;4935535;29;20047;-71
2022/12/03 06:48:53;;;;;;;9.30;5.22;;;;;;;8.64;93.98;100977.53;4933644;29;20048;-71
2022/12/03 06:51:21;;;;;;;7.72;4.15;;;;;;;8.89;93.32;100978.06;4934734;29;20055;-71
2022/12/03 06:53:49;;;;;;;4.72;3.20;;;;;;;8.82;93.50;100984.56;4935532;29;20603;-71
2022/12/03 06:56:17;;;;;;;6.90;3.60;;;;;;;8.72;93.65;100984.44;4936002;29;20518;-72
2022/12/03 06:58:48;;;;;;;4.82;3.00;;;;;;;8.67;93.01;100978.94;4935612;29;20636;-71
2022/12/03 07:01:16;;;;;;;3.75;3.10;;;;;;;8.75;93.14;100975.72;4934531;29;20054;-72
2022/12/03 07:03:45;;;;;;;4.53;3.10;;;;;;;8.82;93.13;100979.09;4935846;29;20043;-71
2022/12/03 07:06:13;;;;;;;6.20;3.45;;;;;;;8.83;92.92;100978.00;4936047;29;20055;-72
2022/12/03 07:08:41;;;;;;;4.20;3.00;;;;;;;8.80;93.92;100983.16;4935819;29;20047;-71
2022/12/03 07:11:29;;;;;;;3.38;3.00;;;;;;;8.95;93.44;100974.28;4935725;29;20055;-71
2022/12/03 07:13:59;;;;;;;4.13;3.42;;;;;;;8.90;93.34;100971.50;4935754;29;20050;-72
2022/12/03 07:16:34;;;;;;;5.50;3.53;;;;;;;8.92;93.36;100969.34;4936811;29;20059;-71
2022/12/03 07:19:04;;;;;;;5.65;3.10;;;;;;;8.97;93.11;100969.38;4942099;29;20055;-71
2022/12/03 07:21:32;;;;;;;4.22;2.83;;;;;;;8.99;91.67;100978.13;4932092;29;20048;-71
2022/12/03 07:24:00;;;;;;;5.78;3.30;;;;;;;9.04;92.03;100977.38;4935049;29;20055;-72
2022/12/03 07:26:28;;;;;;;3.15;2.50;;;;;;;9.14;90.37;100974.72;4934885;29;20063;-71
2022/12/03 07:28:56;;;;;;;4.68;3.13;;;;;;;9.20;91.09;100970.13;4933355;29;20051;-71
2022/12/03 07:31:24;;;;;;;3.28;2.33;;;;;;;9.22;89.69;100971.50;4933983;29;20055;-71
2022/12/03 07:33:52;;;;;;;3.95;2.83;;;;;;;9.27;89.49;100971.56;4932478;29;20403;-71
2022/12/03 07:36:20;;;;;;;4.35;3.45;;;;;;;9.25;90.02;100973.72;4922424;29;20048;-71
2022/12/03 07:38:48;;;;;;;5.47;3.30;;;;;;;9.29;89.50;100968.53;4934088;29;20058;-72
2022/12/03 07:41:16;;;;;;;4.30;3.53;;;;;;;9.29;89.43;100974.00;4933708;29;20056;-70
2022/12/03 07:43:44;;;;;;;3.83;2.55;;;;;;;9.39;88.96;100973.28;4932741;29;20389;-70
2022/12/03 07:46:12;;;;;;;3.70;2.72;;;;;;;9.34;89.10;100963.13;4933557;29;20059;-69
2022/12/03 07:48:40;;;;;;;4.95;3.50;;;;;;;9.25;89.72;100967.44;4934096;29;20056;-69
2022/12/03 07:51:10;;;;;;;4.18;3.40;;;;;;;9.24;88.05;100968.53;4932167;29;20051;-69
2022/12/03 07:53:42;;;;;;;4.38;3.25;;;;;;;9.17;88.01;100965.16;4933498;29;20051;-68
2022/12/03 07:56:10;;;;;;;4.93;3.00;;;;;;;9.36;87.61;100968.34;4934431;29;20407;-68
2022/12/03 07:58:38;;;;;;;5.95;3.20;;;;;;;9.19;87.79;100963.84;4932947;29;20077;-69
2022/12/03 08:01:07;;;;;;;5.18;2.80;;;;;;;9.19;86.54;100957.56;4934241;29;20502;-69
2022/12/03 08:03:35;;;;;;;4.35;2.65;;;;;;;9.17;86.12;100959.72;4934483;29;20044;-70
2022/12/03 08:06:03;;;;;;;4.95;2.85;;;;;;;9.28;85.48;100973.19;4932878;29;20064;-69
2022/12/03 08:08:31;;;;;;;3.47;2.53;;;;;;;9.23;86.07;100964.13;4920585;29;20052;-69
2022/12/03 08:11:00;;;;;;;3.00;2.60;;;;;;;9.26;85.99;100961.72;4919909;29;20063;-69
2022/12/03 08:13:28;;;;;;;5.03;2.92;;;;;;;9.43;85.36;100963.47;4932072;29;20043;-69
2022/12/03 08:16:00;;;;;;;4.00;2.78;;;;;;;9.43;85.02;100966.19;4933588;29;20051;-70
2022/12/03 08:18:28;;;;;;;5.10;3.22;;;;;;;9.55;85.10;100960.53;4934082;29;20054;-70
2022/12/03 08:20:57;;;;;;;4.93;2.75;;;;;;;9.57;84.67;100963.03;4933916;29;20044;-70
2022/12/03 08:23:25;;;;;;;4.38;2.97;;;;;;;9.49;84.62;100969.78;4933952;29;20380;-69
2022/12/03 08:25:53;;;;;;;4.95;2.58;;;;;;;9.66;83.44;100970.44;4934097;29;20055;-69
2022/12/03 08:28:25;;;;;;;3.53;2.58;;;;;;;9.68;83.27;100970.19;4926069;29;20055;-70
2022/12/03 08:31:01;;;;;;;3.42;3.00;;;;;;;9.87;83.81;100959.63;4928722;29;20047;-70
2022/12/03 08:33:34;;;;;;;3.65;3.00;;;;;;;9.95;83.79;100959.13;4930301;29;20491;-69
2022/12/03 08:36:13;;;;;;;5.33;3.17;;;;;;;9.97;82.24;100956.09;4932948;29;20380;-71
2022/12/03 08:38:47;;;;;;;4.50;3.15;;;;;;;10.16;81.12;100955.66;4933003;29;20052;-70
2022/12/03 08:42:40;;;;;;;3.03;2.65;;;;;;;10.17;80.83;100955.38;4934782;29;20052;-71
2022/12/03 08:44:37;;;;;;;3.13;2.33;;;;;;;10.12;81.37;100949.06;4938645;29;20044;-70
2022/12/03 08:47:08;;;;;;;3.30;2.67;;;;;;;10.11;79.28;100953.72;4925967;29;20055;-70
2022/12/03 08:49:39;;;;;;;2.72;2.50;;;;;;;10.30;79.02;100947.75;4932814;29;20048;-68
2022/12/03 08:52:15;;;;;;;2.90;2.60;;;;;;;10.28;79.66;100950.78;4923021;29;20063;-70
2022/12/03 08:54:50;;;;;;;3.17;2.58;;;;;;;10.50;78.21;100947.00;4937278;29;20499;-69
2022/12/03 08:57:26;;;;;;;4.70;3.08;;;;;;;10.46;76.65;100943.19;4936353;29;20055;-70
2022/12/03 09:00:19;;;;;;;3.42;2.35;;;;;;;10.61;77.08;100943.22;4937975;29;20050;-69
2022/12/03 09:02:53;;;;;;;3.28;2.03;;;;;;;10.21;77.40;100945.53;4931304;29;20052;-70
2022/12/03 09:05:26;;;;;;;2.40;1.98;;;;;;;10.29;73.88;100932.44;4940433;29;20494;-70
2022/12/03 09:07:54;;;;;;;2.58;2.10;;;;;;;10.40;74.58;100931.38;4937967;29;20487;-70
2022/12/03 09:10:22;;;;;;;2.30;2.10;;;;;;;10.53;73.88;100935.53;4938059;29;20043;-69
2022/12/03 09:12:50;;;;;;;2.22;1.88;;;;;;;10.58;72.52;100934.72;4924842;29;20036;-69
2022/12/03 09:15:18;;;;;;;2.65;1.73;;;;;;;10.56;72.31;100939.66;4933225;29;20064;-68
2022/12/03 09:17:46;;;;;;;2.05;1.60;;;;;;;10.71;70.86;100941.59;4935592;29;20047;-69
2022/12/03 09:20:14;;;;;;;4.75;1.95;;;;;;;10.60;71.83;100952.53;4935253;29;20044;-69
2022/12/03 09:22:41;;;;;;;3.08;1.70;;;;;;;10.45;72.43;100945.09;4927744;29;20059;-69
2022/12/03 09:25:09;;;;;;;2.30;1.75;;;;;;;10.52;72.61;100944.00;4916459;29;20043;-69
2022/12/03 09:27:37;;;;;;;2.38;2.10;;;;;;;10.65;71.88;100951.69;4932977;29;20506;-70
2022/12/03 09:30:06;;;;;;;2.25;1.75;;;;;;;10.59;71.67;100934.47;4935503;29;20039;-69
2022/12/03 09:32:34;;;;;;;1.50;1.40;;;;;;;10.46;71.00;100935.78;4933786;29;20040;-69
2022/12/03 09:35:02;;;;;;;2.05;1.55;;;;;;;10.48;70.89;100941.81;4919636;29;20625;-69
2022/12/03 09:37:30;;;;;;;3.22;2.15;;;;;;;10.65;70.42;100932.53;4930701;29;20051;-70
2022/12/03 09:39:58;;;;;;;3.05;1.75;;;;;;;10.48;70.57;100933.59;4933828;29;20050;-70
2022/12/03 09:42:26;;;;;;;2.13;1.70;;;;;;;10.74;70.61;100941.88;4920607;29;20404;-68
2022/12/03 09:44:54;;;;;;;2.13;1.85;;;;;;;10.58;69.50;100924.59;4935385;29;20070;-70
2022/12/03 09:47:24;;;;;;;1.75;1.65;;;;;;;10.45;70.90;100928.69;4935537;29;20051;-70
2022/12/03 09:49:52;;;;;;;2.53;2.10;;;;;;;10.60;71.29;100929.78;4937007;29;20518;-70
2022/12/03 09:52:26;;;;;;;2.28;1.83;;;;;;;10.73;69.98;100925.72;4928620;29;20052;-70
2022/12/03 09:55:04;;;;;;;2.70;1.88;;;;;;;10.57;71.27;100922.94;4915333;29;20691;-69
2022/12/03 09:57:32;;;;;;;2.78;1.80;;;;;;;10.64;69.95;100914.47;4927751;29;20063;-69
2022/12/03 10:00:00;;;;;;;1.80;1.52;;;;;;;10.61;70.42;100912.31;4933722;29;20047;-69
2022/12/03 10:02:30;;;;;;;2.45;1.60;;;;;;;10.83;70.47;100905.72;4927904;29;20047;-69
2022/12/03 10:04:58;;;;;;;1.85;1.55;;;;;;;10.80;69.91;100898.06;4935578;29;20056;-69
2022/12/03 10:07:26;;;;;;;1.60;1.48;;;;;;;10.83;70.30;100892.03;4935484;29;20052;-69
2022/12/03 10:09:54;;;;;;;1.73;1.42;;;;;;;10.71;72.07;100895.88;4935608;29;20059;-69
2022/12/03 10:12:23;;;;;;;1.77;1.67;;;;;;;10.94;70.64;100885.47;4934313;29;20411;-70
2022/12/03 10:14:52;;;;;;;2.53;1.67;;;;;;;10.99;72.44;100882.72;4936591;29;20045;-70
2022/12/03 10:17:21;;;;;;;1.67;1.58;;;;;;;11.07;71.98;100886.00;4935015;29;20063;-71
2022/12/03 10:19:49;;;;;;;1.52;1.42;;;;;;;11.09;70.69;100886.56;4934763;29;20055;-71
2022/12/03 10:22:17;;;;;;;1.83;1.45;;;;;;;11.17;70.55;100883.25;4935341;29;20054;-71
2022/12/03 10:25:02;;;;;;;2.05;1.80;;;;;;;11.37;70.77;100885.13;4936256;29;20483;-70
2022/12/03 10:27:31;;;;;;;1.65;1.42;;;;;;;11.18;70.62;100879.41;4934604;29;20052;-71
2022/12/03 10:30:02;;;;;;;2.00;1.90;;;;;;;11.40;71.58;100886.50;4935348;29;20046;-70
2022/12/03 10:32:44;;;;;;;1.52;1.42;;;;;;;11.36;70.59;100890.88;4936364;29;20048;-70
2022/12/03 10:35:19;;;;;;;3.78;1.60;;;;;;;11.25;69.54;100879.13;4927794;29;20498;-68
2022/12/03 10:37:53;;;;;;;2.10;1.85;;;;;;;11.43;69.71;100880.44;4918950;29;20048;-70
2022/12/03 10:40:44;;;;;;;1.60;1.42;;;;;;;11.11;69.40;100866.00;4931358;29;20051;-69
2022/12/03 10:43:18;;;;;;;1.95;1.80;;;;;;;11.27;68.50;100874.19;4925562;29;20055;-69
2022/12/03 10:45:55;;;;;;;1.58;1.48;;;;;;;11.17;69.36;100872.28;4932384;29;20055;-69
2022/12/03 10:48:30;;;;;;;2.00;1.60;;;;;;;11.45;68.96;100867.31;4929711;29;20544;-69
2022/12/03 10:51:12;;;;;;;2.00;1.80;;;;;;;11.65;67.51;100865.59;4933571;29;20059;-69
2022/12/03 10:53:40;;;;;;;1.88;1.77;;;;;;;11.73;65.68;100866.94;4915583;29;20407;-69
2022/12/03 10:56:27;;;;;;;1.30;1.15;;;;;;;11.79;65.82;100868.53;4924090;29;20036;-69
2022/12/03 10:58:58;;;;;;;1.92;1.73;;;;;;;11.87;65.68;100872.63;4925670;29;20047;-70
2022/12/03 11:01:30;;;;;;;1.88;1.60;;;;;;;11.70;66.86;100871.06;4927527;29;20048;-72
2022/12/03 11:04:03;;;;;;;1.98;1.70;;;;;;;11.86;66.33;100877.28;4931146;29;20039;-71
2022/12/03 11:06:36;;;;;;;2.25;1.67;;;;;;;11.72;67.15;100876.25;4932335;29;20395;-69
2022/12/03 11:09:17;;;;;;;3.22;1.75;;;;;;;11.82;68.36;100877.03;4931459;29;20046;-70
2022/12/03 11:11:46;;;;;;;2.53;1.95;;;;;;;11.75;69.43;100882.00;4922487;29;20052;-69
2022/12/03 11:14:54;;;;;;;3.15;2.20;;;;;;;11.75;71.03;100892.97;4917902;29;20052;-69
2022/12/03 11:17:46;;;;;;;2.95;2.55;;;;;;;11.46;71.64;100877.16;4922316;29;20052;-71
2022/12/03 11:20:24;;;;;;;2.20;2.00;;;;;;;11.40;69.50;100881.03;4925936;29;20036;-71
2022/12/03 11:22:56;;;;;;;3.35;2.30;;;;;;;11.44;71.62;100876.59;4942349;29;20052;-70
2022/12/03 11:25:30;;;;;;;1.85;1.67;;;;;;;11.24;71.53;100866.53;4921823;29;20059;-70
2022/12/03 11:28:12;;;;;;;4.05;2.08;;;;;;;11.42;70.07;100873.31;4934728;29;20059;-70
2022/12/03 11:30:49;;;;;;;2.58;1.88;;;;;;;11.50;69.37;100863.72;4932688;29;20058;-70
2022/12/03 11:33:32;;;;;;;1.80;1.70;;;;;;;11.65;68.19;100862.84;4921458;29;20623;-71
2022/12/03 11:36:01;;;;;;;2.17;1.80;;;;;;;11.73;69.36;100862.25;4933590;29;20054;-71
2022/12/03 11:38:37;;;;;;;3.40;2.30;;;;;;;11.44;69.09;100854.69;4927648;29;20430;-69
2022/12/03 11:41:06;;;;;;;;;;;;;;;11.60;69.96;100849.97;4930728;29;20102;-70
2022/12/03 11:44:19;;;;;;;3.92;2.42;;;;;;;11.67;71.00;100852.41;4914292;29;20306;-70
2022/12/03 11:46:48;;;;;;;1.98;1.75;;;;;;;11.65;68.17;100849.13;4917652;29;20062;-70
2022/12/03 11:49:32;;;;;;;2.63;1.95;;;;;;;11.74;67.65;100844.72;4931815;29;20043;-70
2022/12/03 11:52:16;;;;;;;1.95;1.77;;;;;;;11.54;68.19;100824.50;4932185;29;20063;-69
2022/12/03 11:54:55;;;;;;;2.80;2.17;;;;;;;11.66;66.93;100834.31;4936729;29;20059;-71
2022/12/03 11:57:38;;;;;;;2.15;1.92;;;;;;;11.83;66.89;100834.78;4933971;29;20064;-71
2022/12/03 12:00:20;;;;;;;4.80;2.13;;;;;;;11.89;66.06;100832.84;4934117;29;20050;-71
2022/12/03 12:02:50;;;;;;;2.10;1.83;;;;;;;11.75;66.51;100826.34;4929332;29;20042;-70
2022/12/03 12:05:23;;;;;;;2.03;1.83;;;;;;;11.70;65.94;100824.44;4933993;29;20051;-70